Time;durP1;ratioP1;P1;durP2;ratioP2;P2;SDS_P1;SDS_P2;PMS_P1;PMS_P2;Temp;Humidity;BMP_temperature;BMP_pressure;BME280_temperature;BME280_humidity;BME280_pressure;Samples;Min_cycle;Max_cycle;Signal;HPM_P1;HPM_P2
2022/11/23 00:01:18;;;;;;;21.40;4.70;;;;;;;-148.24;100.00;61531.34;5005313;28;20044;-53
2022/11/23 00:03:46;;;;;;;26.08;4.93;;;;;;;-148.24;100.00;61531.34;5008908;28;20033;-53
2022/11/23 00:06:11;;;;;;;23.45;4.45;;;;;;;-148.24;100.00;61531.34;5009291;28;20049;-57
2022/11/23 00:08:37;;;;;;;25.75;4.78;;;;;;;-148.24;100.00;61531.34;5007130;28;20029;-56
2022/11/23 00:11:02;;;;;;;22.35;4.65;;;;;;;-148.24;100.00;61531.34;5006010;28;20538;-56
2022/11/23 00:13:27;;;;;;;19.52;4.57;;;;;;;-148.24;100.00;61531.34;5008092;28;20025;-57
2022/11/23 00:15:53;;;;;;;33.00;6.93;;;;;;;-148.24;100.00;61531.34;5008433;28;20034;-55
2022/11/23 00:18:18;;;;;;;25.60;5.60;;;;;;;-148.24;100.00;61531.34;5007679;28;20029;-56
2022/11/23 00:20:44;;;;;;;24.35;5.90;;;;;;;-148.24;100.00;61531.34;5005628;28;20285;-54
2022/11/23 00:23:09;;;;;;;32.20;7.38;;;;;;;-148.24;100.00;61531.34;5008267;28;20026;-53
2022/11/23 00:25:35;;;;;;;26.85;6.70;;;;;;;-148.24;100.00;61531.34;5006501;28;20030;-55
2022/11/23 00:28:00;;;;;;;34.55;7.65;;;;;;;-148.24;100.00;61531.34;5007050;28;20030;-53
2022/11/23 00:30:26;;;;;;;34.80;7.63;;;;;;;-148.24;100.00;61531.34;5007153;28;20038;-55
2022/11/23 00:32:51;;;;;;;30.80;7.57;;;;;;;-148.24;100.00;61531.34;5007985;28;20502;-52
2022/11/23 00:35:16;;;;;;;33.42;7.32;;;;;;;-148.24;100.00;61531.34;5007507;28;20017;-54
2022/11/23 00:37:42;;;;;;;27.80;6.97;;;;;;;-148.24;100.00;61531.34;5007195;28;20487;-53
2022/11/23 00:40:08;;;;;;;30.40;7.18;;;;;;;-148.24;100.00;61531.34;5008913;28;20101;-53
2022/11/23 00:42:33;;;;;;;27.75;6.57;;;;;;;-148.24;100.00;61531.34;5005135;28;20049;-53
2022/11/23 00:44:58;;;;;;;24.90;5.90;;;;;;;-148.24;100.00;61531.34;5008058;28;20030;-53
2022/11/23 00:47:24;;;;;;;30.20;6.40;;;;;;;-148.24;100.00;61531.34;5006412;28;20041;-52
2022/11/23 00:49:49;;;;;;;31.50;6.38;;;;;;;-148.24;100.00;61531.34;5008523;28;20032;-53
2022/11/23 00:52:14;;;;;;;32.05;6.68;;;;;;;-148.24;100.00;61531.34;5005822;28;20052;-53
2022/11/23 00:54:40;;;;;;;28.30;5.90;;;;;;;-148.24;100.00;61531.34;5007234;28;20032;-54
2022/11/23 00:57:05;;;;;;;28.83;6.30;;;;;;;-148.24;100.00;61531.34;5007092;28;20111;-53
2022/11/23 00:59:30;;;;;;;34.72;6.40;;;;;;;-148.24;100.00;61531.34;5008373;28;20499;-53
2022/11/23 01:01:56;;;;;;;32.50;6.18;;;;;;;-148.24;100.00;61531.34;5007963;28;20522;-56
2022/11/23 01:04:21;;;;;;;22.63;5.22;;;;;;;-148.24;100.00;61531.34;5007576;28;20021;-53
2022/11/23 01:06:46;;;;;;;29.58;6.03;;;;;;;-148.24;100.00;61531.34;5006707;28;20147;-53
2022/11/23 01:09:16;;;;;;;28.38;5.72;;;;;;;-148.24;100.00;61531.34;5007587;28;20594;-53
2022/11/23 01:11:43;;;;;;;30.48;6.18;;;;;;;-148.24;100.00;61531.34;5005085;28;20041;-56
2022/11/23 01:14:08;;;;;;;23.98;4.82;;;;;;;-148.24;100.00;61531.34;5006647;28;20053;-55
2022/11/23 01:16:36;;;;;;;28.02;5.80;;;;;;;-148.24;100.00;61531.34;5004076;28;20121;-54
2022/11/23 01:19:05;;;;;;;27.70;5.63;;;;;;;-148.24;100.00;61531.34;5009476;28;20038;-52
2022/11/23 01:21:33;;;;;;;28.40;5.93;;;;;;;-148.24;100.00;61531.34;5005726;28;20576;-52
2022/11/23 01:23:59;;;;;;;31.58;5.78;;;;;;;-148.24;100.00;61531.34;5007632;28;20026;-52
2022/11/23 01:26:24;;;;;;;32.03;5.38;;;;;;;-148.24;100.00;61531.34;5006924;28;20036;-53
2022/11/23 01:28:50;;;;;;;36.65;6.22;;;;;;;-148.24;100.00;61531.34;5007728;28;20167;-52
2022/11/23 01:31:18;;;;;;;32.50;6.32;;;;;;;-148.24;100.00;61531.34;5004366;28;20042;-54
2022/11/23 01:33:44;;;;;;;27.33;6.03;;;;;;;-148.24;100.00;61531.34;5007893;28;20557;-53
2022/11/23 01:36:19;;;;;;;33.83;5.82;;;;;;;-148.24;100.00;61531.34;5006764;28;20037;-53
2022/11/23 01:38:46;;;;;;;30.13;6.28;;;;;;;-148.24;100.00;61531.34;5009668;28;20037;-54
2022/11/23 01:41:15;;;;;;;25.98;5.90;;;;;;;-148.24;100.00;61531.34;5006565;28;20045;-53
2022/11/23 01:43:41;;;;;;;30.08;6.20;;;;;;;-148.24;100.00;61531.34;5006618;28;20028;-52
2022/11/23 01:46:07;;;;;;;39.72;7.32;;;;;;;-148.24;100.00;61531.34;5007126;28;20033;-52
2022/11/23 01:48:40;;;;;;;27.95;6.15;;;;;;;-148.24;100.00;61531.34;5007591;28;20033;-56
2022/11/23 01:51:09;;;;;;;34.53;7.20;;;;;;;-148.24;100.00;61531.34;5005866;28;20049;-54
2022/11/23 01:53:36;;;;;;;33.58;7.68;;;;;;;-148.24;100.00;61531.34;5007454;28;20573;-55
2022/11/23 01:56:05;;;;;;;33.15;7.10;;;;;;;-148.24;100.00;61531.34;5006715;28;20040;-54
2022/11/23 01:58:33;;;;;;;32.67;6.97;;;;;;;-148.24;100.00;61531.34;5007705;28;20061;-54
2022/11/23 02:00:59;;;;;;;37.95;7.55;;;;;;;-148.24;100.00;61531.34;5005178;28;20044;-53
2022/11/23 02:03:27;;;;;;;36.00;6.88;;;;;;;-148.24;100.00;61531.34;4993563;28;20045;-53
2022/11/23 02:05:59;;;;;;;28.48;6.45;;;;;;;-148.24;100.00;61531.34;5006210;28;20048;-52
2022/11/23 02:08:25;;;;;;;38.58;7.68;;;;;;;-148.24;100.00;61531.34;5005635;28;20108;-53
2022/11/23 02:10:51;;;;;;;35.63;7.57;;;;;;;-148.24;100.00;61531.34;5003832;28;20045;-53
2022/11/23 02:13:17;;;;;;;35.50;7.43;;;;;;;-148.24;100.00;61531.34;5006924;28;20029;-52
2022/11/23 02:15:43;;;;;;;32.33;6.80;;;;;;;-148.24;100.00;61531.34;5005965;28;20042;-53
2022/11/23 02:18:16;;;;;;;27.15;6.60;;;;;;;-148.24;100.00;61531.34;5006385;28;20025;-53
2022/11/23 02:20:43;;;;;;;25.35;6.25;;;;;;;-148.24;100.00;61531.34;5006013;28;20886;-53
2022/11/23 02:23:17;;;;;;;33.15;7.88;;;;;;;-148.24;100.00;61531.34;5010397;28;20036;-54
2022/11/23 02:25:45;;;;;;;34.30;7.03;;;;;;;-148.24;100.00;61531.34;5008945;28;20088;-52
2022/11/23 02:28:16;;;;;;;37.88;7.38;;;;;;;-148.24;100.00;61531.34;5007339;28;20029;-56
2022/11/23 02:30:44;;;;;;;37.88;7.57;;;;;;;-148.24;100.00;61531.34;5008058;28;20040;-53
2022/11/23 02:33:09;;;;;;;33.15;6.68;;;;;;;-148.24;100.00;61531.34;5008458;28;20634;-52
2022/11/23 02:35:34;;;;;;;35.50;7.22;;;;;;;-148.24;100.00;61531.34;5009755;28;20045;-55
2022/11/23 02:38:04;;;;;;;30.80;6.88;;;;;;;-148.24;100.00;61531.34;5009718;28;20064;-52
2022/11/23 02:40:35;;;;;;;30.48;7.00;;;;;;;-148.24;100.00;61531.34;5008102;28;20547;-55
2022/11/23 02:43:01;;;;;;;33.40;6.82;;;;;;;-148.24;100.00;61531.34;5008543;28;20036;-53
2022/11/23 02:45:37;;;;;;;26.90;6.75;;;;;;;-148.24;100.00;61531.34;5009989;28;20033;-54
2022/11/23 02:48:03;;;;;;;33.28;6.75;;;;;;;-148.24;100.00;61531.34;5009482;28;20112;-55
2022/11/23 02:50:29;;;;;;;32.30;6.68;;;;;;;-148.24;100.00;61531.34;5008327;28;20132;-56
2022/11/23 02:52:55;;;;;;;37.88;6.90;;;;;;;-148.24;100.00;61531.34;5010714;28;20060;-53
2022/11/23 02:55:20;;;;;;;34.03;6.85;;;;;;;-148.24;100.00;61531.34;5008537;28;20062;-53
2022/11/23 02:57:46;;;;;;;34.83;7.10;;;;;;;-148.24;100.00;61531.34;5009821;28;20030;-53
2022/11/23 03:00:11;;;;;;;35.78;6.47;;;;;;;-148.24;100.00;61531.34;5006325;28;20082;-53
2022/11/23 03:02:37;;;;;;;29.38;6.30;;;;;;;-148.24;100.00;61531.34;5010557;28;20026;-52
2022/11/23 03:05:02;;;;;;;34.60;7.07;;;;;;;-148.24;100.00;61531.34;5007826;28;20033;-53
2022/11/23 03:07:28;;;;;;;32.38;6.68;;;;;;;-148.24;100.00;61531.34;5007428;28;20034;-53
2022/11/23 03:09:53;;;;;;;39.20;7.63;;;;;;;-148.24;100.00;61531.34;5008802;28;20082;-54
2022/11/23 03:12:18;;;;;;;37.13;6.90;;;;;;;-148.24;100.00;61531.34;5010847;28;20069;-53
2022/11/23 03:14:44;;;;;;;33.13;6.80;;;;;;;-148.24;100.00;61531.34;5010884;28;20026;-52
2022/11/23 03:17:09;;;;;;;36.35;6.57;;;;;;;-148.24;100.00;61531.34;5007456;28;20037;-53
2022/11/23 03:19:34;;;;;;;25.60;5.80;;;;;;;-148.24;100.00;61531.34;5011367;28;20068;-54
2022/11/23 03:22:00;;;;;;;27.90;5.30;;;;;;;-148.24;100.00;61531.34;5006997;28;20131;-53
2022/11/23 03:24:25;;;;;;;28.63;6.03;;;;;;;-148.24;100.00;61531.34;5008287;28;20056;-55
2022/11/23 03:26:51;;;;;;;31.65;6.22;;;;;;;-148.24;100.00;61531.34;5008797;28;20525;-54
2022/11/23 03:29:16;;;;;;;30.77;6.38;;;;;;;-148.24;100.00;61531.34;5006497;28;20467;-54
2022/11/23 03:31:42;;;;;;;30.38;6.53;;;;;;;-148.24;100.00;61531.34;5006935;28;20111;-54
2022/11/23 03:34:08;;;;;;;23.65;5.78;;;;;;;-148.24;100.00;61531.34;5008913;28;20657;-52
2022/11/23 03:36:34;;;;;;;30.38;6.07;;;;;;;-148.24;100.00;61531.34;5008816;28;20129;-54
2022/11/23 03:38:59;;;;;;;27.17;5.68;;;;;;;-148.24;100.00;61531.34;5010059;28;20026;-53
2022/11/23 03:41:24;;;;;;;25.38;5.50;;;;;;;-148.24;100.00;61531.34;5007412;28;20044;-54
2022/11/23 03:43:49;;;;;;;26.25;5.50;;;;;;;-148.24;100.00;61531.34;5007611;28;20022;-54
2022/11/23 03:46:15;;;;;;;28.70;5.65;;;;;;;-148.24;100.00;61531.34;5007555;28;20415;-55
2022/11/23 03:48:40;;;;;;;31.02;6.40;;;;;;;-148.24;100.00;61531.34;5009338;28;20124;-55
2022/11/23 03:51:05;;;;;;;18.48;4.60;;;;;;;-148.24;100.00;61531.34;5008311;28;20700;-52
2022/11/23 03:53:31;;;;;;;29.45;6.00;;;;;;;-148.24;100.00;61531.34;5009124;28;20556;-53
2022/11/23 03:55:57;;;;;;;31.48;5.90;;;;;;;-148.24;100.00;61531.34;5008429;28;20030;-53
2022/11/23 03:58:22;;;;;;;27.38;5.53;;;;;;;-148.24;100.00;61531.34;5007082;28;20040;-53
2022/11/23 04:00:47;;;;;;;30.13;6.22;;;;;;;-148.24;100.00;61531.34;5008229;28;20105;-54
2022/11/23 04:03:13;;;;;;;32.60;6.68;;;;;;;-148.24;100.00;61531.34;5008478;28;20030;-52
2022/11/23 04:05:38;;;;;;;31.27;6.63;;;;;;;-148.24;100.00;61531.34;5008339;28;20038;-52
2022/11/23 04:08:04;;;;;;;26.90;6.10;;;;;;;-148.24;100.00;61531.34;5008371;28;20029;-52
2022/11/23 04:10:29;;;;;;;29.55;6.47;;;;;;;-148.24;100.00;61531.34;5008279;28;20037;-52
2022/11/23 04:12:54;;;;;;;39.53;6.88;;;;;;;-148.24;100.00;61531.34;5006232;28;20464;-52
2022/11/23 04:15:20;;;;;;;36.03;6.68;;;;;;;-148.24;100.00;61531.34;5005561;28;20036;-53
2022/11/23 04:17:45;;;;;;;31.90;6.07;;;;;;;-148.24;100.00;61531.34;5007817;28;20029;-53
2022/11/23 04:20:12;;;;;;;29.95;6.00;;;;;;;-148.24;100.00;61531.34;5007908;28;20422;-53
2022/11/23 04:22:37;;;;;;;27.88;5.68;;;;;;;-148.24;100.00;61531.34;5007370;28;20037;-53
2022/11/23 04:25:03;;;;;;;33.33;6.55;;;;;;;-148.24;100.00;61531.34;5007907;28;20025;-53
2022/11/23 04:27:28;;;;;;;25.42;5.43;;;;;;;-148.24;100.00;61531.34;5005861;28;20060;-52
2022/11/23 04:29:53;;;;;;;39.22;7.18;;;;;;;-148.24;100.00;61531.34;5006164;28;20511;-52
2022/11/23 04:32:19;;;;;;;28.48;6.35;;;;;;;-148.24;100.00;61531.34;5008019;28;20689;-55
2022/11/23 04:34:44;;;;;;;27.58;6.28;;;;;;;-148.24;100.00;61531.34;5008010;28;20025;-52
2022/11/23 04:37:10;;;;;;;33.30;6.57;;;;;;;-148.24;100.00;61531.34;5006525;28;20073;-55
2022/11/23 04:39:36;;;;;;;25.05;5.88;;;;;;;-148.24;100.00;61531.34;5007369;28;20026;-54
2022/11/23 04:42:01;;;;;;;30.77;6.43;;;;;;;-148.24;100.00;61531.34;5005454;28;20407;-52
2022/11/23 04:44:26;;;;;;;27.33;5.93;;;;;;;-148.24;100.00;61531.34;5007367;28;20099;-53
2022/11/23 04:46:52;;;;;;;29.52;6.50;;;;;;;-148.24;100.00;61531.34;5006900;28;20044;-53
2022/11/23 04:49:17;;;;;;;29.73;6.05;;;;;;;-148.24;100.00;61531.34;5007443;28;20037;-53
2022/11/23 04:51:42;;;;;;;24.15;5.20;;;;;;;-148.24;100.00;61531.34;5006105;28;20038;-53
2022/11/23 04:54:08;;;;;;;28.00;6.35;;;;;;;-148.24;100.00;61531.34;5005191;28;20022;-54
2022/11/23 04:56:33;;;;;;;29.60;5.88;;;;;;;-148.24;100.00;61531.34;5007836;28;20513;-52
2022/11/23 04:58:59;;;;;;;30.85;5.70;;;;;;;-148.24;100.00;61531.34;5006266;28;20075;-53
2022/11/23 05:01:24;;;;;;;26.98;5.38;;;;;;;-148.24;100.00;61531.34;5005528;28;20039;-53
2022/11/23 05:03:49;;;;;;;28.63;5.35;;;;;;;-148.24;100.00;61531.34;5006541;28;20670;-53
2022/11/23 05:06:15;;;;;;;26.02;5.75;;;;;;;-148.24;100.00;61531.34;5005394;28;20479;-55
2022/11/23 05:08:41;;;;;;;19.77;4.82;;;;;;;-148.24;100.00;61531.34;5007414;28;20393;-53
2022/11/23 05:11:07;;;;;;;23.70;5.10;;;;;;;-148.24;100.00;61531.34;5006665;28;20041;-54
2022/11/23 05:13:32;;;;;;;39.88;5.95;;;;;;;-148.24;100.00;61531.34;5004308;28;20026;-52
2022/11/23 05:15:57;;;;;;;26.25;5.43;;;;;;;-148.24;100.00;61531.34;5005357;28;20037;-56
2022/11/23 05:18:23;;;;;;;25.48;5.40;;;;;;;-148.24;100.00;61531.34;5006634;28;20041;-55
2022/11/23 05:20:48;;;;;;;25.60;5.03;;;;;;;-148.24;100.00;61531.34;5003552;28;20627;-54
2022/11/23 05:23:13;;;;;;;26.77;6.00;;;;;;;-148.24;100.00;61531.34;5006290;28;20373;-53
2022/11/23 05:25:39;;;;;;;27.27;5.18;;;;;;;-148.24;100.00;61531.34;5005908;28;20038;-52
2022/11/23 05:28:04;;;;;;;26.20;5.65;;;;;;;-148.24;100.00;61531.34;5008052;28;20029;-53
2022/11/23 05:30:30;;;;;;;27.02;5.78;;;;;;;-148.24;100.00;61531.34;5006647;28;20411;-52
2022/11/23 05:33:02;;;;;;;36.80;8.18;;;;;;;-148.24;100.00;61531.34;5007202;28;20026;-53
2022/11/23 05:35:27;;;;;;;;;;;;;;;-148.24;100.00;61531.34;5006554;28;20049;-55
2022/11/23 05:37:53;;;;;;;35.13;6.63;;;;;;;-148.24;100.00;61531.34;5005274;28;19913;-55
2022/11/23 05:40:18;;;;;;;27.10;6.35;;;;;;;-148.24;100.00;61531.34;5004206;28;20519;-56
2022/11/23 05:42:43;;;;;;;31.38;6.30;;;;;;;-148.24;100.00;61531.34;5005860;28;20565;-54
2022/11/23 05:45:09;;;;;;;30.73;6.18;;;;;;;-148.24;100.00;61531.34;5013748;28;20117;-56
2022/11/23 05:47:34;;;;;;;24.25;5.57;;;;;;;-148.24;100.00;61531.34;5007435;28;20018;-55
2022/11/23 05:50:00;;;;;;;35.05;6.18;;;;;;;-148.24;100.00;61531.34;5007112;28;20025;-53
2022/11/23 05:52:25;;;;;;;28.77;6.35;;;;;;;-148.24;100.00;61531.34;5008410;28;20045;-53
2022/11/23 05:54:50;;;;;;;34.53;6.55;;;;;;;-148.24;100.00;61531.34;5006613;28;20725;-52
2022/11/23 05:57:16;;;;;;;27.55;5.65;;;;;;;-148.24;100.00;61531.34;5014022;28;20068;-53
2022/11/23 05:59:42;;;;;;;28.40;5.97;;;;;;;-148.24;100.00;61531.34;5008107;28;20028;-53
2022/11/23 06:02:07;;;;;;;33.83;6.28;;;;;;;-148.24;100.00;61531.34;5011764;28;20175;-55
2022/11/23 06:04:33;;;;;;;27.58;5.03;;;;;;;-148.24;100.00;61531.34;5010773;28;20021;-53
2022/11/23 06:06:59;;;;;;;25.52;5.35;;;;;;;-148.24;100.00;61531.34;5009797;28;20045;-55
2022/11/23 06:09:26;;;;;;;25.02;5.20;;;;;;;-148.24;100.00;61531.34;5010296;28;20120;-57
2022/11/23 06:11:51;;;;;;;25.58;5.30;;;;;;;-148.24;100.00;61531.34;5009445;28;20080;-57
2022/11/23 06:14:17;;;;;;;36.40;6.28;;;;;;;-148.24;100.00;61531.34;5011784;28;20256;-56
2022/11/23 06:16:42;;;;;;;28.98;5.63;;;;;;;-148.24;100.00;61531.34;5006681;28;20124;-57
2022/11/23 06:19:07;;;;;;;30.65;6.00;;;;;;;-148.24;100.00;61531.34;5007748;28;20044;-54
2022/11/23 06:21:33;;;;;;;27.55;5.70;;;;;;;-148.24;100.00;61531.34;5009155;28;20069;-54
2022/11/23 06:23:58;;;;;;;25.80;5.88;;;;;;;-148.24;100.00;61531.34;5010210;28;20037;-55
2022/11/23 06:26:24;;;;;;;31.35;6.82;;;;;;;-148.24;100.00;61531.34;5009604;28;20033;-54
2022/11/23 06:28:50;;;;;;;34.72;7.32;;;;;;;-148.24;100.00;61531.34;5008999;28;20021;-54
2022/11/23 06:31:15;;;;;;;38.63;9.80;;;;;;;-148.24;100.00;61531.34;5007023;28;20075;-56
2022/11/23 06:33:41;;;;;;;34.35;9.00;;;;;;;-148.24;100.00;61531.34;5008209;28;20080;-54
2022/11/23 06:36:08;;;;;;;30.48;7.70;;;;;;;-148.24;100.00;61531.34;5008237;28;20068;-55
2022/11/23 06:38:34;;;;;;;33.33;7.20;;;;;;;-148.24;100.00;61531.34;5012808;28;20034;-54
2022/11/23 06:41:00;;;;;;;26.77;6.25;;;;;;;-148.24;100.00;61531.34;5008100;28;20044;-53
2022/11/23 06:43:26;;;;;;;26.05;6.55;;;;;;;-148.24;100.00;61531.34;5006696;28;20084;-54
2022/11/23 06:45:52;;;;;;;23.30;5.93;;;;;;;-148.24;100.00;61531.34;5007224;28;20029;-54
2022/11/23 06:48:17;;;;;;;47.25;12.10;;;;;;;-148.24;100.00;61531.34;5007607;28;20039;-55
2022/11/23 06:50:43;;;;;;;54.17;13.75;;;;;;;-148.24;100.00;61531.34;5008132;28;20041;-54
2022/11/23 06:53:11;;;;;;;52.45;13.98;;;;;;;-148.24;100.00;61531.34;5008378;28;20022;-54
2022/11/23 06:55:36;;;;;;;49.70;13.98;;;;;;;-148.24;100.00;61531.34;5008217;28;20096;-54
2022/11/23 06:58:02;;;;;;;32.90;9.50;;;;;;;-148.24;100.00;61531.34;5009295;28;20029;-54
2022/11/23 07:00:27;;;;;;;30.92;9.05;;;;;;;-148.24;100.00;61531.34;5008530;28;20033;-54
2022/11/23 07:02:54;;;;;;;36.88;7.15;;;;;;;-148.24;100.00;61531.34;5010756;28;20029;-54
2022/11/23 07:05:19;;;;;;;27.42;5.88;;;;;;;-148.24;100.00;61531.34;5009341;28;20033;-55
2022/11/23 07:07:44;;;;;;;25.63;6.40;;;;;;;-148.24;100.00;61531.34;5008081;28;20060;-54
2022/11/23 07:10:10;;;;;;;42.45;7.47;;;;;;;-148.24;100.00;61531.34;5007728;28;20036;-56
2022/11/23 07:12:35;;;;;;;22.90;5.60;;;;;;;-148.24;100.00;61531.34;5006981;28;20087;-54
2022/11/23 07:15:01;;;;;;;31.45;7.20;;;;;;;-148.24;100.00;61531.34;5008059;28;20191;-56
2022/11/23 07:17:26;;;;;;;30.92;6.88;;;;;;;-148.24;100.00;61531.34;5007097;28;20088;-57
2022/11/23 07:19:52;;;;;;;30.35;7.22;;;;;;;-148.24;100.00;61531.34;5009960;28;20029;-54
2022/11/23 07:22:17;;;;;;;27.55;6.55;;;;;;;-148.24;100.00;61531.34;5008948;28;20045;-54
2022/11/23 07:24:42;;;;;;;33.08;7.20;;;;;;;-148.24;100.00;61531.34;5006916;28;20034;-57
2022/11/23 07:27:08;;;;;;;32.90;7.53;;;;;;;-148.24;100.00;61531.34;5006018;28;20041;-55
2022/11/23 07:29:33;;;;;;;27.52;6.18;;;;;;;-148.24;100.00;61531.34;5006770;28;20026;-54
2022/11/23 07:31:59;;;;;;;26.33;6.22;;;;;;;-148.24;100.00;61531.34;5007064;28;20042;-55
2022/11/23 07:34:24;;;;;;;25.75;6.22;;;;;;;-148.24;100.00;61531.34;5008231;28;20017;-54
2022/11/23 07:36:50;;;;;;;26.40;6.05;;;;;;;-148.24;100.00;61531.34;5000759;28;20110;-54
2022/11/23 07:39:15;;;;;;;28.77;6.82;;;;;;;-148.24;100.00;61531.34;5006752;28;20036;-53
2022/11/23 07:41:41;;;;;;;25.98;6.25;;;;;;;-148.24;100.00;61531.34;5006727;28;20040;-53
2022/11/23 07:44:06;;;;;;;28.00;6.53;;;;;;;-148.24;100.00;61531.34;5007794;28;20050;-53
2022/11/23 07:46:31;;;;;;;23.92;6.47;;;;;;;-148.24;100.00;61531.34;5016042;28;20034;-54
2022/11/23 07:49:01;;;;;;;28.38;6.78;;;;;;;-148.24;100.00;61531.34;5007776;28;20624;-56
2022/11/23 07:51:29;;;;;;;38.58;8.05;;;;;;;-148.24;100.00;61531.34;5006635;28;20034;-54
2022/11/23 07:53:54;;;;;;;35.90;6.85;;;;;;;-148.24;100.00;61531.34;5006517;28;20399;-57
2022/11/23 07:56:19;;;;;;;29.65;7.60;;;;;;;-148.24;100.00;61531.34;5009254;28;20818;-56
2022/11/23 07:58:45;;;;;;;26.25;6.68;;;;;;;-148.24;100.00;61531.34;5006858;28;20083;-54
2022/11/23 08:01:17;;;;;;;26.95;7.30;;;;;;;-148.24;100.00;61531.34;5007716;28;20030;-54
2022/11/23 08:03:44;;;;;;;33.70;7.45;;;;;;;-148.24;100.00;61531.34;5006278;28;20781;-54
2022/11/23 08:06:10;;;;;;;27.58;7.00;;;;;;;-148.24;100.00;61531.34;5009535;28;20518;-56
2022/11/23 08:08:36;;;;;;;33.55;7.72;;;;;;;-148.24;100.00;61531.34;5008458;28;20032;-54
2022/11/23 08:11:01;;;;;;;27.25;7.70;;;;;;;-148.24;100.00;61531.34;5007309;28;20362;-54
2022/11/23 08:13:26;;;;;;;29.10;7.53;;;;;;;-148.24;100.00;61531.34;5007252;28;20029;-55
2022/11/23 08:15:52;;;;;;;32.22;9.05;;;;;;;-148.24;100.00;61531.34;5005842;28;20769;-54
2022/11/23 08:18:17;;;;;;;35.85;9.20;;;;;;;-148.24;100.00;61531.34;5007306;28;20060;-54
2022/11/23 08:20:42;;;;;;;33.17;9.55;;;;;;;-148.24;100.00;61531.34;5007172;28;20112;-54
2022/11/23 08:23:08;;;;;;;32.33;9.45;;;;;;;-148.24;100.00;61531.34;5006725;28;20041;-54
2022/11/23 08:25:33;;;;;;;33.25;9.20;;;;;;;-148.24;100.00;61531.34;5009288;28;20052;-54
2022/11/23 08:28:02;;;;;;;28.38;7.15;;;;;;;-148.24;100.00;61531.34;5006761;28;20026;-55
2022/11/23 08:30:29;;;;;;;25.63;7.38;;;;;;;-148.24;100.00;61531.34;5007502;28;20073;-55
2022/11/23 08:32:54;;;;;;;34.83;7.70;;;;;;;-148.24;100.00;61531.34;5007160;28;20518;-54
2022/11/23 08:35:20;;;;;;;31.48;8.93;;;;;;;-148.24;100.00;61531.34;5007610;28;20033;-53
2022/11/23 08:37:45;;;;;;;28.83;8.63;;;;;;;-148.24;100.00;61531.34;5008901;28;20052;-54
2022/11/23 08:40:11;;;;;;;33.80;9.25;;;;;;;-148.24;100.00;61531.34;5006682;28;20091;-54
2022/11/23 08:42:37;;;;;;;30.20;8.30;;;;;;;-148.24;100.00;61531.34;5007493;28;20026;-55
2022/11/23 08:45:04;;;;;;;27.27;8.02;;;;;;;-148.24;100.00;61531.34;5007578;28;20049;-56
2022/11/23 08:47:30;;;;;;;25.85;7.85;;;;;;;-148.24;100.00;61531.34;5005775;28;20076;-56
2022/11/23 08:49:55;;;;;;;35.58;8.48;;;;;;;-148.24;100.00;61531.34;5005566;28;20041;-56
2022/11/23 08:52:21;;;;;;;34.47;8.75;;;;;;;-148.24;100.00;61531.34;5006465;28;20474;-56
2022/11/23 08:54:46;;;;;;;23.00;7.03;;;;;;;-148.24;100.00;61531.34;5006668;28;20022;-57
2022/11/23 08:57:11;;;;;;;31.60;7.05;;;;;;;-148.24;100.00;61531.34;5007392;28;20043;-54
2022/11/23 08:59:37;;;;;;;25.55;6.63;;;;;;;-148.24;100.00;61531.34;5005538;28;20033;-54
2022/11/23 09:02:02;;;;;;;30.42;6.95;;;;;;;-148.24;100.00;61531.34;5005298;28;20391;-56
2022/11/23 09:04:29;;;;;;;25.27;6.10;;;;;;;-148.24;100.00;61531.34;5005514;28;20356;-55
2022/11/23 09:06:55;;;;;;;25.65;6.15;;;;;;;-148.24;100.00;61531.34;5005835;28;20140;-55
2022/11/23 09:09:21;;;;;;;27.90;6.35;;;;;;;-148.24;100.00;61531.34;5006860;28;20112;-54
2022/11/23 09:11:47;;;;;;;24.25;5.93;;;;;;;-148.24;100.00;61531.34;5005846;28;20407;-54
2022/11/23 09:14:12;;;;;;;24.27;4.93;;;;;;;-148.24;100.00;61531.34;5005872;28;20439;-55
2022/11/23 09:16:38;;;;;;;25.05;6.22;;;;;;;-148.24;100.00;61531.34;5007128;28;20038;-54
2022/11/23 09:19:04;;;;;;;22.38;5.90;;;;;;;-148.24;100.00;61531.34;5007067;28;20471;-54
2022/11/23 09:21:32;;;;;;;29.80;6.22;;;;;;;-148.24;100.00;61531.34;5007710;28;20043;-55
2022/11/23 09:23:58;;;;;;;25.80;5.97;;;;;;;-148.24;100.00;61531.34;5004093;28;20034;-55
2022/11/23 09:26:24;;;;;;;26.52;6.18;;;;;;;-148.24;100.00;61531.34;5007035;28;20730;-54
2022/11/23 09:28:49;;;;;;;22.90;5.10;;;;;;;-148.24;100.00;61531.34;5007641;28;20045;-54
2022/11/23 09:31:15;;;;;;;22.60;4.97;;;;;;;-148.24;100.00;61531.34;5006058;28;20436;-55
2022/11/23 09:33:40;;;;;;;25.77;5.47;;;;;;;-148.24;100.00;61531.34;5010924;28;20021;-54
2022/11/23 09:36:06;;;;;;;26.02;5.53;;;;;;;-148.24;100.00;61531.34;5010501;28;20069;-55
2022/11/23 09:38:31;;;;;;;23.17;5.50;;;;;;;-148.24;100.00;61531.34;5010973;28;20030;-54
2022/11/23 09:41:32;;;;;;;27.30;6.00;;;;;;;-148.24;100.00;61531.34;5010099;28;20063;-55
2022/11/23 09:44:03;;;;;;;28.17;5.85;;;;;;;-148.24;100.00;61531.34;5007660;28;20117;-55
2022/11/23 09:46:59;;;;;;;23.65;5.43;;;;;;;-148.24;100.00;61531.34;5010903;28;20057;-56
2022/11/23 09:50:02;;;;;;;22.15;5.93;;;;;;;-148.24;100.00;61531.34;5011712;28;20095;-55
2022/11/23 09:52:29;;;;;;;23.95;5.55;;;;;;;-148.24;100.00;61531.34;5014449;28;20068;-57
2022/11/23 09:54:59;;;;;;;41.28;7.05;;;;;;;-148.24;100.00;61531.34;5008220;28;20040;-54
2022/11/23 09:57:28;;;;;;;20.50;5.80;;;;;;;-148.24;100.00;61531.34;5008915;28;20563;-55
2022/11/23 10:00:07;;;;;;;33.65;6.72;;;;;;;-148.24;100.00;61531.34;5010596;28;20029;-54
2022/11/23 10:02:39;;;;;;;29.83;5.75;;;;;;;-148.24;100.00;61531.34;5011028;28;20037;-55
2022/11/23 10:05:06;;;;;;;23.55;5.90;;;;;;;-148.24;100.00;61531.34;5009254;28;20046;-54
2022/11/23 10:07:40;;;;;;;21.67;5.68;;;;;;;-148.24;100.00;61531.34;5008088;28;20069;-54
2022/11/23 10:10:21;;;;;;;25.35;5.80;;;;;;;-148.24;100.00;61531.34;5009121;28;20029;-55
2022/11/23 10:13:14;;;;;;;24.95;5.68;;;;;;;-148.24;100.00;61531.34;5008209;28;20107;-54
2022/11/23 10:16:02;;;;;;;20.63;5.22;;;;;;;-148.24;100.00;61531.34;5010543;28;20155;-55
2022/11/23 10:19:08;;;;;;;27.33;5.72;;;;;;;-148.24;100.00;61531.34;5009077;28;20501;-56
2022/11/23 10:21:49;;;;;;;17.90;4.68;;;;;;;-148.24;100.00;61531.34;5011874;28;21016;-54
2022/11/23 10:24:18;;;;;;;28.80;5.95;;;;;;;-148.24;100.00;61531.34;5008776;28;20034;-55
2022/11/23 10:26:46;;;;;;;22.15;5.03;;;;;;;-148.24;100.00;61531.34;5008085;28;20402;-55
2022/11/23 10:29:29;;;;;;;27.33;5.60;;;;;;;-148.24;100.00;61531.34;5010651;28;20049;-53
2022/11/23 10:31:56;;;;;;;15.52;4.10;;;;;;;-148.24;100.00;61531.34;5009579;28;20049;-54
2022/11/23 10:34:55;;;;;;;25.77;5.40;;;;;;;-148.24;100.00;61531.34;5007708;28;20293;-56
2022/11/23 10:37:21;;;;;;;26.90;5.13;;;;;;;-148.24;100.00;61531.34;5003882;28;20033;-56
2022/11/23 10:39:46;;;;;;;23.30;5.43;;;;;;;-148.24;100.00;61531.34;5008737;28;20022;-54
2022/11/23 10:42:45;;;;;;;18.80;4.60;;;;;;;-148.24;100.00;61531.34;5011112;28;20077;-54
2022/11/23 10:45:20;;;;;;;18.92;4.40;;;;;;;-148.24;100.00;61531.34;5009691;28;20069;-54
2022/11/23 10:47:53;;;;;;;31.95;5.53;;;;;;;-148.24;100.00;61531.34;5010581;28;20459;-56
2022/11/23 10:50:24;;;;;;;19.88;4.47;;;;;;;-148.24;100.00;61531.34;5009487;28;20053;-54
2022/11/23 10:52:52;;;;;;;59.08;7.75;;;;;;;-148.24;100.00;61531.34;5008924;28;20037;-55
2022/11/23 10:55:25;;;;;;;22.40;5.13;;;;;;;-148.24;100.00;61531.34;5008900;28;20562;-57
2022/11/23 10:57:50;;;;;;;22.55;4.80;;;;;;;-148.24;100.00;61531.34;5008255;28;20517;-54
2022/11/23 11:00:19;;;;;;;22.65;4.90;;;;;;;-148.24;100.00;61531.34;5007353;28;20749;-54
2022/11/23 11:02:47;;;;;;;21.95;4.70;;;;;;;-148.24;100.00;61531.34;5008557;28;20049;-56